sensor_id;sensor_type;location;lat;lon;timestamp;pressure;altitude;pressure_sealevel;temperature;humidity
74794;BME280;63320;50.768;6.724;2023-07-29T00:01:40;99446.63;;;19.76;93.36
74794;BME280;63320;50.768;6.724;2023-07-29T00:04:06;99442.28;;;19.75;93.58
74794;BME280;63320;50.768;6.724;2023-07-29T00:06:31;99442.13;;;19.77;93.99
74794;BME280;63320;50.768;6.724;2023-07-29T00:08:58;99436.75;;;19.59;95.15
74794;BME280;63320;50.768;6.724;2023-07-29T00:11:23;99436.34;;;19.63;95.98
74794;BME280;63320;50.768;6.724;2023-07-29T00:13:49;99442.84;;;19.51;96.42
74794;BME280;63320;50.768;6.724;2023-07-29T00:16:14;99436.22;;;19.55;96.66
74794;BME280;63320;50.768;6.724;2023-07-29T00:18:39;99430.59;;;19.58;96.55
74794;BME280;63320;50.768;6.724;2023-07-29T00:21:05;99423.41;;;19.69;96.63
74794;BME280;63320;50.768;6.724;2023-07-29T00:23:30;99425.28;;;19.76;96.10
74794;BME280;63320;50.768;6.724;2023-07-29T00:25:56;99426.06;;;19.69;95.94
74794;BME280;63320;50.768;6.724;2023-07-29T00:28:22;99429.94;;;19.74;95.38
74794;BME280;63320;50.768;6.724;2023-07-29T00:30:47;99417.44;;;19.75;95.61
74794;BME280;63320;50.768;6.724;2023-07-29T00:33:12;99417.81;;;19.80;95.61
74794;BME280;63320;50.768;6.724;2023-07-29T00:35:38;99417.00;;;19.79;95.09
74794;BME280;63320;50.768;6.724;2023-07-29T00:38:03;99419.50;;;19.81;95.43
74794;BME280;63320;50.768;6.724;2023-07-29T00:40:29;99409.13;;;19.78;95.46
74794;BME280;63320;50.768;6.724;2023-07-29T00:42:56;99409.66;;;19.81;96.22
74794;BME280;63320;50.768;6.724;2023-07-29T00:45:23;99409.81;;;19.80;95.94
74794;BME280;63320;50.768;6.724;2023-07-29T00:47:50;99404.94;;;19.75;96.10
74794;BME280;63320;50.768;6.724;2023-07-29T00:50:15;99417.44;;;19.75;95.71
74794;BME280;63320;50.768;6.724;2023-07-29T00:52:41;99419.94;;;19.76;95.55
74794;BME280;63320;50.768;6.724;2023-07-29T00:55:07;99407.63;;;19.75;95.37
74794;BME280;63320;50.768;6.724;2023-07-29T00:57:33;99406.78;;;19.75;95.40
74794;BME280;63320;50.768;6.724;2023-07-29T01:00:00;99401.44;;;19.75;95.03
74794;BME280;63320;50.768;6.724;2023-07-29T01:02:26;99404.50;;;19.80;95.25
74794;BME280;63320;50.768;6.724;2023-07-29T01:04:53;99393.97;;;19.78;94.54
74794;BME280;63320;50.768;6.724;2023-07-29T01:07:21;99389.47;;;19.79;94.73
74794;BME280;63320;50.768;6.724;2023-07-29T01:09:55;99384.16;;;19.79;94.64
74794;BME280;63320;50.768;6.724;2023-07-29T01:12:26;99375.91;;;19.72;94.07
74794;BME280;63320;50.768;6.724;2023-07-29T01:14:56;99377.06;;;19.70;94.42
74794;BME280;63320;50.768;6.724;2023-07-29T01:17:30;99387.41;;;19.73;94.83
74794;BME280;63320;50.768;6.724;2023-07-29T01:20:00;99382.00;;;19.64;94.89
74794;BME280;63320;50.768;6.724;2023-07-29T01:22:27;99387.41;;;19.73;94.42
74794;BME280;63320;50.768;6.724;2023-07-29T01:24:54;99383.75;;;19.74;94.62
74794;BME280;63320;50.768;6.724;2023-07-29T01:27:19;99384.06;;;19.71;95.22
74794;BME280;63320;50.768;6.724;2023-07-29T01:29:44;99371.94;;;19.76;95.00
74794;BME280;63320;50.768;6.724;2023-07-29T01:32:12;99378.06;;;19.69;95.49
74794;BME280;63320;50.768;6.724;2023-07-29T01:34:43;99374.38;;;19.70;95.16
74794;BME280;63320;50.768;6.724;2023-07-29T01:37:14;99384.06;;;19.71;95.24
74794;BME280;63320;50.768;6.724;2023-07-29T01:39:40;99394.72;;;19.71;94.74
74794;BME280;63320;50.768;6.724;2023-07-29T01:42:08;99414.13;;;19.45;95.59
74794;BME280;63320;50.768;6.724;2023-07-29T01:44:34;99412.41;;;19.26;97.05
74794;BME280;63320;50.768;6.724;2023-07-29T01:47:00;99401.50;;;19.20;97.47
74794;BME280;63320;50.768;6.724;2023-07-29T01:49:26;99407.91;;;19.27;96.91
74794;BME280;63320;50.768;6.724;2023-07-29T01:51:51;99398.50;;;19.23;97.42
74794;BME280;63320;50.768;6.724;2023-07-29T01:54:16;99392.50;;;19.21;97.32
74794;BME280;63320;50.768;6.724;2023-07-29T01:56:42;99392.91;;;19.26;97.64
74794;BME280;63320;50.768;6.724;2023-07-29T01:59:08;99393.28;;;19.13;98.19
74794;BME280;63320;50.768;6.724;2023-07-29T02:01:34;99397.28;;;19.17;98.38
74794;BME280;63320;50.768;6.724;2023-07-29T02:03:59;99397.94;;;19.29;99.23
74794;BME280;63320;50.768;6.724;2023-07-29T02:06:24;99396.78;;;19.31;99.35
74794;BME280;63320;50.768;6.724;2023-07-29T02:08:51;99392.22;;;19.41;98.57
74794;BME280;63320;50.768;6.724;2023-07-29T02:11:16;99385.69;;;19.36;98.29
74794;BME280;63320;50.768;6.724;2023-07-29T02:13:41;99378.13;;;19.31;99.07
74794;BME280;63320;50.768;6.724;2023-07-29T02:16:08;99392.66;;;19.19;100.00
74794;BME280;63320;50.768;6.724;2023-07-29T02:18:33;99388.06;;;19.11;100.00
74794;BME280;63320;50.768;6.724;2023-07-29T02:20:58;99382.66;;;19.03;100.00
74794;BME280;63320;50.768;6.724;2023-07-29T02:23:24;99384.88;;;19.08;100.00
74794;BME280;63320;50.768;6.724;2023-07-29T02:25:50;99381.81;;;19.03;100.00
74794;BME280;63320;50.768;6.724;2023-07-29T02:28:15;99383.69;;;18.93;100.00
74794;BME280;63320;50.768;6.724;2023-07-29T02:30:41;99384.66;;;18.92;100.00
74794;BME280;63320;50.768;6.724;2023-07-29T02:33:08;99386.75;;;18.98;100.00
74794;BME280;63320;50.768;6.724;2023-07-29T02:35:33;99388.03;;;18.94;100.00
74794;BME280;63320;50.768;6.724;2023-07-29T02:37:58;99384.25;;;18.86;100.00
74794;BME280;63320;50.768;6.724;2023-07-29T02:40:24;99378.41;;;18.83;100.00
74794;BME280;63320;50.768;6.724;2023-07-29T02:42:49;99386.13;;;18.76;100.00
74794;BME280;63320;50.768;6.724;2023-07-29T02:45:14;99388.78;;;18.76;99.48
74794;BME280;63320;50.768;6.724;2023-07-29T02:47:40;99401.69;;;18.81;99.05
74794;BME280;63320;50.768;6.724;2023-07-29T02:50:07;99395.69;;;18.69;98.89
74794;BME280;63320;50.768;6.724;2023-07-29T02:52:32;99387.72;;;18.69;98.90
74794;BME280;63320;50.768;6.724;2023-07-29T02:54:58;99396.06;;;18.84;98.89
74794;BME280;63320;50.768;6.724;2023-07-29T02:57:23;99390.03;;;18.82;98.14
74794;BME280;63320;50.768;6.724;2023-07-29T02:59:48;99375.78;;;18.73;97.88
74794;BME280;63320;50.768;6.724;2023-07-29T03:02:14;99380.13;;;18.64;97.97
74794;BME280;63320;50.768;6.724;2023-07-29T03:04:39;99388.13;;;18.64;97.98
74794;BME280;63320;50.768;6.724;2023-07-29T03:07:06;99387.28;;;18.74;97.82
74794;BME280;63320;50.768;6.724;2023-07-29T03:09:31;99388.78;;;18.67;96.97
74794;BME280;63320;50.768;6.724;2023-07-29T03:11:56;99390.50;;;18.68;96.43
74794;BME280;63320;50.768;6.724;2023-07-29T03:14:22;99391.22;;;18.70;97.26
74794;BME280;63320;50.768;6.724;2023-07-29T03:16:47;99387.56;;;18.61;97.34
74794;BME280;63320;50.768;6.724;2023-07-29T03:19:12;99379.56;;;18.61;97.35
74794;BME280;63320;50.768;6.724;2023-07-29T03:21:38;99380.03;;;18.47;97.22
74794;BME280;63320;50.768;6.724;2023-07-29T03:24:04;99391.38;;;18.58;97.32
74794;BME280;63320;50.768;6.724;2023-07-29T03:26:30;99383.25;;;18.50;97.79
74794;BME280;63320;50.768;6.724;2023-07-29T03:28:55;99381.63;;;18.30;98.23
74794;BME280;63320;50.768;6.724;2023-07-29T03:31:20;99371.66;;;18.32;98.67
74794;BME280;63320;50.768;6.724;2023-07-29T03:33:46;99363.69;;;18.32;98.57
74794;BME280;63320;50.768;6.724;2023-07-29T03:36:11;99360.59;;;18.36;98.39
74794;BME280;63320;50.768;6.724;2023-07-29T03:38:36;99359.28;;;18.50;98.47
74794;BME280;63320;50.768;6.724;2023-07-29T03:41:03;99363.47;;;18.62;98.13
74794;BME280;63320;50.768;6.724;2023-07-29T03:43:28;99360.81;;;18.62;97.30
74794;BME280;63320;50.768;6.724;2023-07-29T03:45:54;99359.00;;;18.53;97.48
74794;BME280;63320;50.768;6.724;2023-07-29T03:48:19;99378.72;;;18.60;98.04
74794;BME280;63320;50.768;6.724;2023-07-29T03:50:45;99377.31;;;18.66;97.83
74794;BME280;63320;50.768;6.724;2023-07-29T03:53:10;99383.94;;;18.52;97.32
74794;BME280;63320;50.768;6.724;2023-07-29T03:55:35;99384.22;;;18.59;97.46
74794;BME280;63320;50.768;6.724;2023-07-29T03:58:02;99383.13;;;18.42;97.07
74794;BME280;63320;50.768;6.724;2023-07-29T04:00:27;99387.97;;;18.19;98.06
74794;BME280;63320;50.768;6.724;2023-07-29T04:02:53;99383.59;;;18.28;98.19
74794;BME280;63320;50.768;6.724;2023-07-29T04:05:18;99364.41;;;18.34;98.05
74794;BME280;63320;50.768;6.724;2023-07-29T04:07:44;99376.00;;;18.43;97.75
74794;BME280;63320;50.768;6.724;2023-07-29T04:10:10;99378.91;;;18.49;97.99
74794;BME280;63320;50.768;6.724;2023-07-29T04:12:35;99382.03;;;18.35;97.22
74794;BME280;63320;50.768;6.724;2023-07-29T04:15:02;99381.50;;;18.12;99.04
74794;BME280;63320;50.768;6.724;2023-07-29T04:17:28;99390.47;;;18.11;98.47
74794;BME280;63320;50.768;6.724;2023-07-29T04:19:53;99379.97;;;18.29;98.42
74794;BME280;63320;50.768;6.724;2023-07-29T04:22:19;99390.84;;;18.35;98.40
74794;BME280;63320;50.768;6.724;2023-07-29T04:24:44;99388.22;;;18.16;98.27
74794;BME280;63320;50.768;6.724;2023-07-29T04:27:09;99386.53;;;18.25;98.89
74794;BME280;63320;50.768;6.724;2023-07-29T04:29:35;99398.47;;;18.11;98.02
74794;BME280;63320;50.768;6.724;2023-07-29T04:32:02;99404.22;;;17.97;98.48
74794;BME280;63320;50.768;6.724;2023-07-29T04:34:27;99412.19;;;17.87;98.79
74794;BME280;63320;50.768;6.724;2023-07-29T04:36:53;99419.31;;;17.86;98.77
74794;BME280;63320;50.768;6.724;2023-07-29T04:39:18;99409.00;;;17.93;98.43
74794;BME280;63320;50.768;6.724;2023-07-29T04:41:43;99409.41;;;18.08;97.77
74794;BME280;63320;50.768;6.724;2023-07-29T04:44:09;99408.28;;;18.01;96.82
74794;BME280;63320;50.768;6.724;2023-07-29T04:46:36;99407.44;;;18.00;95.80
74794;BME280;63320;50.768;6.724;2023-07-29T04:49:02;99414.00;;;17.96;95.91
74794;BME280;63320;50.768;6.724;2023-07-29T04:51:28;99424.38;;;17.99;96.13
74794;BME280;63320;50.768;6.724;2023-07-29T04:53:53;99420.31;;;17.95;96.92
74794;BME280;63320;50.768;6.724;2023-07-29T04:56:19;99414.31;;;18.03;95.97
74794;BME280;63320;50.768;6.724;2023-07-29T04:58:44;99410.38;;;18.07;95.86
74794;BME280;63320;50.768;6.724;2023-07-29T05:01:10;99406.19;;;17.95;96.25
74794;BME280;63320;50.768;6.724;2023-07-29T05:03:51;99405.19;;;17.96;95.98
74794;BME280;63320;50.768;6.724;2023-07-29T05:06:17;99405.59;;;18.10;95.65
74794;BME280;63320;50.768;6.724;2023-07-29T05:08:43;99399.19;;;18.03;96.47
74794;BME280;63320;50.768;6.724;2023-07-29T05:11:08;99392.53;;;18.27;96.42
74794;BME280;63320;50.768;6.724;2023-07-29T05:13:33;99382.72;;;18.37;96.16
74794;BME280;63320;50.768;6.724;2023-07-29T05:15:59;99398.03;;;18.16;95.95
74794;BME280;63320;50.768;6.724;2023-07-29T05:18:24;99401.81;;;18.23;96.62
74794;BME280;63320;50.768;6.724;2023-07-29T05:20:50;99402.66;;;18.33;96.25
74794;BME280;63320;50.768;6.724;2023-07-29T05:23:16;99416.94;;;18.22;95.41
74794;BME280;63320;50.768;6.724;2023-07-29T05:25:42;99417.09;;;18.01;96.27
74794;BME280;63320;50.768;6.724;2023-07-29T05:28:07;99420.16;;;17.97;96.90
74794;BME280;63320;50.768;6.724;2023-07-29T05:30:33;99422.97;;;18.15;97.90
74794;BME280;63320;50.768;6.724;2023-07-29T05:32:58;99430.97;;;17.95;96.39
74794;BME280;63320;50.768;6.724;2023-07-29T05:35:24;99419.63;;;17.83;96.96
74794;BME280;63320;50.768;6.724;2023-07-29T05:37:49;99421.72;;;17.99;97.22
74794;BME280;63320;50.768;6.724;2023-07-29T05:40:19;99428.13;;;18.16;96.39
74794;BME280;63320;50.768;6.724;2023-07-29T05:42:45;99423.81;;;18.25;97.08
74794;BME280;63320;50.768;6.724;2023-07-29T05:45:10;99421.97;;;18.25;97.44
74794;BME280;63320;50.768;6.724;2023-07-29T05:47:36;99427.44;;;18.24;96.78
74794;BME280;63320;50.768;6.724;2023-07-29T05:50:01;99431.78;;;18.34;96.78
74794;BME280;63320;50.768;6.724;2023-07-29T05:52:26;99441.28;;;18.37;96.61
74794;BME280;63320;50.768;6.724;2023-07-29T05:54:52;99447.59;;;18.36;96.88
74794;BME280;63320;50.768;6.724;2023-07-29T05:57:18;99462.72;;;18.26;97.46
74794;BME280;63320;50.768;6.724;2023-07-29T05:59:44;99457.81;;;18.31;97.56
74794;BME280;63320;50.768;6.724;2023-07-29T06:02:09;99463.44;;;18.18;97.39
74794;BME280;63320;50.768;6.724;2023-07-29T06:04:34;99465.22;;;18.37;96.94
74794;BME280;63320;50.768;6.724;2023-07-29T06:07:00;99481.50;;;18.24;97.98
74794;BME280;63320;50.768;6.724;2023-07-29T06:09:25;99469.59;;;18.38;97.67
74794;BME280;63320;50.768;6.724;2023-07-29T06:11:50;99479.38;;;18.47;97.99
74794;BME280;63320;50.768;6.724;2023-07-29T06:14:17;99477.84;;;18.45;97.67
74794;BME280;63320;50.768;6.724;2023-07-29T06:16:42;99485.28;;;18.41;97.92
74794;BME280;63320;50.768;6.724;2023-07-29T06:19:08;99496.34;;;18.27;98.65
74794;BME280;63320;50.768;6.724;2023-07-29T06:21:33;99489.75;;;18.21;99.49
74794;BME280;63320;50.768;6.724;2023-07-29T06:23:59;99485.28;;;18.41;98.44
74794;BME280;63320;50.768;6.724;2023-07-29T06:26:24;99491.56;;;18.50;98.87
74794;BME280;63320;50.768;6.724;2023-07-29T06:28:49;99495.91;;;18.60;98.27
74794;BME280;63320;50.768;6.724;2023-07-29T06:31:16;99486.38;;;18.58;98.40
74794;BME280;63320;50.768;6.724;2023-07-29T06:33:42;99485.25;;;18.60;98.32
74794;BME280;63320;50.768;6.724;2023-07-29T06:36:07;99487.50;;;18.46;97.72
74794;BME280;63320;50.768;6.724;2023-07-29T06:38:32;99478.53;;;18.47;98.52
74794;BME280;63320;50.768;6.724;2023-07-29T06:40:57;99486.09;;;18.61;98.26
74794;BME280;63320;50.768;6.724;2023-07-29T06:43:23;99476.44;;;18.50;96.25
74794;BME280;63320;50.768;6.724;2023-07-29T06:45:48;99490.00;;;18.67;97.26
74794;BME280;63320;50.768;6.724;2023-07-29T06:48:15;99476.56;;;18.78;97.73
74794;BME280;63320;50.768;6.724;2023-07-29T06:50:40;99468.84;;;18.75;97.02
74794;BME280;63320;50.768;6.724;2023-07-29T06:53:06;99469.09;;;18.81;98.15
74794;BME280;63320;50.768;6.724;2023-07-29T06:55:31;99489.69;;;18.89;97.41
74794;BME280;63320;50.768;6.724;2023-07-29T06:57:56;99483.84;;;18.76;96.00
74794;BME280;63320;50.768;6.724;2023-07-29T07:00:22;99489.72;;;18.60;96.12
74794;BME280;63320;50.768;6.724;2023-07-29T07:02:47;99497.56;;;18.61;96.43
74794;BME280;63320;50.768;6.724;2023-07-29T07:05:14;99498.72;;;18.69;96.53
74794;BME280;63320;50.768;6.724;2023-07-29T07:07:39;99502.22;;;18.79;97.04
74794;BME280;63320;50.768;6.724;2023-07-29T07:10:05;99501.38;;;18.69;96.18
74794;BME280;63320;50.768;6.724;2023-07-29T07:12:31;99506.69;;;18.88;95.06
74794;BME280;63320;50.768;6.724;2023-07-29T07:14:56;99507.22;;;18.82;95.22
74794;BME280;63320;50.768;6.724;2023-07-29T07:17:21;99496.25;;;19.04;92.76
74794;BME280;63320;50.768;6.724;2023-07-29T07:19:47;99491.66;;;18.87;91.97
74794;BME280;63320;50.768;6.724;2023-07-29T07:22:14;99505.47;;;18.73;91.25
74794;BME280;63320;50.768;6.724;2023-07-29T07:24:39;99505.97;;;18.76;90.46
74794;BME280;63320;50.768;6.724;2023-07-29T07:27:05;99517.47;;;18.77;89.70
74794;BME280;63320;50.768;6.724;2023-07-29T07:29:30;99516.53;;;18.78;88.47
74794;BME280;63320;50.768;6.724;2023-07-29T07:31:56;99513.53;;;18.81;88.26
74794;BME280;63320;50.768;6.724;2023-07-29T07:34:21;99519.72;;;18.81;88.96
74794;BME280;63320;50.768;6.724;2023-07-29T07:36:47;99513.53;;;18.91;87.27
74794;BME280;63320;50.768;6.724;2023-07-29T07:39:14;99515.78;;;18.85;84.58
74794;BME280;63320;50.768;6.724;2023-07-29T07:41:40;99509.88;;;18.92;86.58
74794;BME280;63320;50.768;6.724;2023-07-29T07:44:05;99509.78;;;18.83;86.39
74794;BME280;63320;50.768;6.724;2023-07-29T07:46:30;99511.31;;;18.76;84.87
74794;BME280;63320;50.768;6.724;2023-07-29T07:48:56;99509.75;;;18.93;84.87
74794;BME280;63320;50.768;6.724;2023-07-29T07:51:21;99504.41;;;19.03;85.22
74794;BME280;63320;50.768;6.724;2023-07-29T07:53:46;99506.81;;;18.77;85.05
74794;BME280;63320;50.768;6.724;2023-07-29T07:56:13;99509.88;;;18.92;83.87
74794;BME280;63320;50.768;6.724;2023-07-29T07:58:38;99513.47;;;19.10;84.07
74794;BME280;63320;50.768;6.724;2023-07-29T08:01:05;99518.78;;;19.20;85.22
74794;BME280;63320;50.768;6.724;2023-07-29T08:03:30;99515.91;;;19.31;83.08
74794;BME280;63320;50.768;6.724;2023-07-29T08:05:56;99535.97;;;19.35;79.79
74794;BME280;63320;50.768;6.724;2023-07-29T08:08:21;99533.06;;;19.28;79.71
74794;BME280;63320;50.768;6.724;2023-07-29T08:10:47;99531.03;;;19.40;80.08
74794;BME280;63320;50.768;6.724;2023-07-29T08:13:13;99529.19;;;19.40;78.90
74794;BME280;63320;50.768;6.724;2023-07-29T08:15:39;99533.03;;;19.38;79.02
74794;BME280;63320;50.768;6.724;2023-07-29T08:18:04;99528.47;;;19.48;78.67
74794;BME280;63320;50.768;6.724;2023-07-29T08:20:29;99526.09;;;19.45;79.19
74794;BME280;63320;50.768;6.724;2023-07-29T08:22:55;99535.56;;;19.30;78.32
74794;BME280;63320;50.768;6.724;2023-07-29T08:25:20;99528.84;;;19.26;77.51
74794;BME280;63320;50.768;6.724;2023-07-29T08:27:45;99526.41;;;19.32;79.08
74794;BME280;63320;50.768;6.724;2023-07-29T08:30:12;99530.38;;;19.28;77.11
74794;BME280;63320;50.768;6.724;2023-07-29T08:32:37;99538.06;;;19.31;77.64
74794;BME280;63320;50.768;6.724;2023-07-29T08:35:03;99540.75;;;19.31;77.90
74794;BME280;63320;50.768;6.724;2023-07-29T08:37:29;99535.31;;;19.23;76.94
74794;BME280;63320;50.768;6.724;2023-07-29T08:39:54;99540.94;;;19.20;77.17
74794;BME280;63320;50.768;6.724;2023-07-29T08:42:19;99531.09;;;19.21;76.88
74794;BME280;63320;50.768;6.724;2023-07-29T08:44:49;99537.00;;;19.24;77.78
74794;BME280;63320;50.768;6.724;2023-07-29T08:47:15;99539.06;;;19.30;78.09
74794;BME280;63320;50.768;6.724;2023-07-29T08:49:41;99540.16;;;19.37;78.41
74794;BME280;63320;50.768;6.724;2023-07-29T08:52:07;99534.56;;;19.31;73.76
74794;BME280;63320;50.768;6.724;2023-07-29T08:54:32;99538.09;;;19.22;73.74
74794;BME280;63320;50.768;6.724;2023-07-29T08:56:58;99542.31;;;19.24;73.41
74794;BME280;63320;50.768;6.724;2023-07-29T08:59:24;99546.63;;;19.35;74.32
74794;BME280;63320;50.768;6.724;2023-07-29T09:01:51;99546.50;;;19.27;74.04
74794;BME280;63320;50.768;6.724;2023-07-29T09:04:18;99541.72;;;19.30;73.90
74794;BME280;63320;50.768;6.724;2023-07-29T09:06:45;99542.28;;;19.34;74.37
74794;BME280;63320;50.768;6.724;2023-07-29T09:09:11;99538.03;;;19.41;73.97
74794;BME280;63320;50.768;6.724;2023-07-29T09:11:37;99536.31;;;19.50;75.32
74794;BME280;63320;50.768;6.724;2023-07-29T09:14:02;99535.50;;;19.49;73.63
74794;BME280;63320;50.768;6.724;2023-07-29T09:16:28;99536.16;;;19.61;74.77
74794;BME280;63320;50.768;6.724;2023-07-29T09:18:54;99539.94;;;19.58;74.12
74794;BME280;63320;50.768;6.724;2023-07-29T09:21:24;99536.16;;;19.61;74.31
74794;BME280;63320;50.768;6.724;2023-07-29T09:23:50;99542.72;;;19.57;73.73
74794;BME280;63320;50.768;6.724;2023-07-29T09:26:22;99539.53;;;19.63;73.65
74794;BME280;63320;50.768;6.724;2023-07-29T09:28:52;99546.31;;;19.75;72.84
74794;BME280;63320;50.768;6.724;2023-07-29T09:31:18;99544.88;;;19.81;73.04
74794;BME280;63320;50.768;6.724;2023-07-29T09:33:44;99544.16;;;19.88;72.81
74794;BME280;63320;50.768;6.724;2023-07-29T09:36:09;99545.06;;;19.97;71.97
74794;BME280;63320;50.768;6.724;2023-07-29T09:38:37;99541.50;;;19.88;71.97
74794;BME280;63320;50.768;6.724;2023-07-29T09:41:02;99540.28;;;20.01;71.34
74794;BME280;63320;50.768;6.724;2023-07-29T09:43:29;99536.50;;;19.76;71.30
74794;BME280;63320;50.768;6.724;2023-07-29T09:45:55;99546.50;;;19.91;73.20
74794;BME280;63320;50.768;6.724;2023-07-29T09:48:22;99545.97;;;19.88;73.40
74794;BME280;63320;50.768;6.724;2023-07-29T09:50:48;99552.56;;;19.94;74.11
74794;BME280;63320;50.768;6.724;2023-07-29T09:53:14;99555.34;;;19.92;73.56
74794;BME280;63320;50.768;6.724;2023-07-29T09:55:46;99557.28;;;20.00;74.19
74794;BME280;63320;50.768;6.724;2023-07-29T09:58:11;99555.72;;;19.79;71.27
74794;BME280;63320;50.768;6.724;2023-07-29T10:00:37;99561.97;;;19.88;72.61
74794;BME280;63320;50.768;6.724;2023-07-29T10:03:03;99559.16;;;19.89;72.59
74794;BME280;63320;50.768;6.724;2023-07-29T10:05:29;99566.72;;;19.94;73.49
74794;BME280;63320;50.768;6.724;2023-07-29T10:07:55;99573.44;;;19.98;73.03
74794;BME280;63320;50.768;6.724;2023-07-29T10:10:21;99561.97;;;19.88;72.88
74794;BME280;63320;50.768;6.724;2023-07-29T10:12:49;99574.56;;;19.96;73.32
74794;BME280;63320;50.768;6.724;2023-07-29T10:15:15;99568.00;;;19.90;72.87
74794;BME280;63320;50.768;6.724;2023-07-29T10:17:40;99566.00;;;19.74;73.35
74794;BME280;63320;50.768;6.724;2023-07-29T10:20:07;99566.13;;;19.73;72.68
74794;BME280;63320;50.768;6.724;2023-07-29T10:22:36;99565.72;;;19.67;73.04
74794;BME280;63320;50.768;6.724;2023-07-29T10:25:03;99576.66;;;19.74;73.61
74794;BME280;63320;50.768;6.724;2023-07-29T10:27:29;99570.38;;;19.65;75.02
74794;BME280;63320;50.768;6.724;2023-07-29T10:29:56;99583.31;;;19.60;76.81
74794;BME280;63320;50.768;6.724;2023-07-29T10:32:25;99590.69;;;19.39;80.80
74794;BME280;63320;50.768;6.724;2023-07-29T10:34:50;99595.41;;;18.98;82.50
74794;BME280;63320;50.768;6.724;2023-07-29T10:37:16;99601.03;;;18.76;86.15
74794;BME280;63320;50.768;6.724;2023-07-29T10:39:52;99592.47;;;18.62;87.68
74794;BME280;63320;50.768;6.724;2023-07-29T10:42:17;99600.88;;;18.48;89.92
74794;BME280;63320;50.768;6.724;2023-07-29T10:44:46;99594.13;;;18.44;91.31
74794;BME280;63320;50.768;6.724;2023-07-29T10:47:14;99583.19;;;18.67;91.08
74794;BME280;63320;50.768;6.724;2023-07-29T10:49:40;99588.41;;;18.58;92.01
74794;BME280;63320;50.768;6.724;2023-07-29T10:52:05;99586.03;;;18.84;88.71
74794;BME280;63320;50.768;6.724;2023-07-29T10:54:41;99580.94;;;19.01;90.26
74794;BME280;63320;50.768;6.724;2023-07-29T10:57:07;99575.59;;;19.10;88.26
74794;BME280;63320;50.768;6.724;2023-07-29T10:59:32;99578.25;;;19.10;89.93
74794;BME280;63320;50.768;6.724;2023-07-29T11:01:58;99583.34;;;18.94;88.18
74794;BME280;63320;50.768;6.724;2023-07-29T11:04:26;99573.97;;;19.37;86.47
74794;BME280;63320;50.768;6.724;2023-07-29T11:07:18;99571.59;;;19.44;86.76
74794;BME280;63320;50.768;6.724;2023-07-29T11:09:52;99571.06;;;19.67;85.22
74794;BME280;63320;50.768;6.724;2023-07-29T11:12:41;99568.78;;;19.73;84.04
74794;BME280;63320;50.768;6.724;2023-07-29T11:15:16;99559.78;;;20.01;84.65
74794;BME280;63320;50.768;6.724;2023-07-29T11:17:42;99563.00;;;20.05;84.76
74794;BME280;63320;50.768;6.724;2023-07-29T11:20:10;99570.78;;;19.98;85.00
74794;BME280;63320;50.768;6.724;2023-07-29T11:22:36;99569.41;;;20.12;83.89
74794;BME280;63320;50.768;6.724;2023-07-29T11:25:02;99565.00;;;20.21;83.95
74794;BME280;63320;50.768;6.724;2023-07-29T11:27:27;99558.34;;;20.07;84.14
74794;BME280;63320;50.768;6.724;2023-07-29T11:29:56;99558.66;;;20.22;85.17
74794;BME280;63320;50.768;6.724;2023-07-29T11:32:22;99554.16;;;20.22;83.77
74794;BME280;63320;50.768;6.724;2023-07-29T11:34:47;99561.88;;;20.43;87.14
74794;BME280;63320;50.768;6.724;2023-07-29T11:37:14;99553.41;;;20.30;84.70
74794;BME280;63320;50.768;6.724;2023-07-29T11:39:40;99557.53;;;20.24;85.43
74794;BME280;63320;50.768;6.724;2023-07-29T11:42:05;99555.34;;;20.55;89.77
74794;BME280;63320;50.768;6.724;2023-07-29T11:44:31;99551.50;;;20.40;86.30
74794;BME280;63320;50.768;6.724;2023-07-29T11:46:56;99546.63;;;20.53;83.79
74794;BME280;63320;50.768;6.724;2023-07-29T11:49:21;99548.13;;;20.38;81.32
74794;BME280;63320;50.768;6.724;2023-07-29T11:51:47;99538.25;;;20.48;81.15
74794;BME280;63320;50.768;6.724;2023-07-29T11:54:13;99527.81;;;20.55;79.26
74794;BME280;63320;50.768;6.724;2023-07-29T11:56:40;99516.03;;;20.65;79.64
74794;BME280;63320;50.768;6.724;2023-07-29T11:59:06;99516.19;;;20.64;78.12
74794;BME280;63320;50.768;6.724;2023-07-29T12:01:32;99517.22;;;20.71;76.49
74794;BME280;63320;50.768;6.724;2023-07-29T12:03:59;99517.78;;;20.75;70.25
74794;BME280;63320;50.768;6.724;2023-07-29T12:06:25;99518.41;;;20.68;73.24
74794;BME280;63320;50.768;6.724;2023-07-29T12:08:51;99511.50;;;20.84;72.41
74794;BME280;63320;50.768;6.724;2023-07-29T12:11:18;99512.81;;;20.88;71.74
74794;BME280;63320;50.768;6.724;2023-07-29T12:13:43;99503.28;;;21.11;72.13
74794;BME280;63320;50.768;6.724;2023-07-29T12:16:08;99509.94;;;21.07;69.44
74794;BME280;63320;50.768;6.724;2023-07-29T12:18:35;99509.28;;;21.31;71.66
74794;BME280;63320;50.768;6.724;2023-07-29T12:21:01;99521.69;;;21.49;70.40
74794;BME280;63320;50.768;6.724;2023-07-29T12:23:28;99509.03;;;21.51;70.15
74794;BME280;63320;50.768;6.724;2023-07-29T12:25:57;99506.78;;;21.80;70.49
74794;BME280;63320;50.768;6.724;2023-07-29T12:28:24;99500.28;;;21.91;69.57
74794;BME280;63320;50.768;6.724;2023-07-29T12:30:53;99490.91;;;21.87;68.65
74794;BME280;63320;50.768;6.724;2023-07-29T12:33:29;99496.94;;;21.89;69.97
74794;BME280;63320;50.768;6.724;2023-07-29T12:35:55;99499.25;;;21.84;70.02
74794;BME280;63320;50.768;6.724;2023-07-29T12:38:21;99492.53;;;21.71;70.32
74794;BME280;63320;50.768;6.724;2023-07-29T12:40:46;99489.53;;;21.75;71.58
74794;BME280;63320;50.768;6.724;2023-07-29T12:43:11;99478.16;;;21.64;71.12
74794;BME280;63320;50.768;6.724;2023-07-29T12:45:38;99477.78;;;21.59;71.26
74794;BME280;63320;50.768;6.724;2023-07-29T12:48:03;99467.38;;;21.40;70.39
74794;BME280;63320;50.768;6.724;2023-07-29T12:50:29;99473.03;;;21.37;69.78
74794;BME280;63320;50.768;6.724;2023-07-29T12:52:54;99479.41;;;21.44;69.91
74794;BME280;63320;50.768;6.724;2023-07-29T12:55:19;99493.47;;;21.46;69.32